ADDS METAR Data INFO
IDs: Format: Raw Decoded Include TAF

Data at: 2008 UTC 19 Oct 2017

KVYS 191955Z AUTO 11006KT 10SM CLR 22/00 A3015 RMK AO2 T02150001
KVYS 191935Z AUTO 08005KT 10SM CLR 21/00 A3015 RMK AO2 T02120002
KVYS 191910Z AUTO 16003KT 10SM CLR 21/M02 A3016 RMK AO2 T02111018
KVYS 191855Z AUTO 12006KT 10SM CLR 21/M03 A3017 RMK AO2 T02071028
KVYS 191835Z AUTO 15006KT 10SM CLR 21/M01 A3017 RMK AO2 T02051013
KVYS 191815Z AUTO 10003KT 10SM CLR 20/M01 A3018 RMK AO2 T02001009
KVYS 191755Z AUTO 12005KT 10SM CLR 20/M01 A3018 RMK AO2 T01981009 10199 20087
KVYS 191735Z AUTO 10004KT 10SM CLR 20/M01 A3019 RMK AO2 T01951014
KVYS 191715Z AUTO 08005KT 10SM CLR 19/M02 A3020 RMK AO2 T01911017
KVYS 191655Z AUTO 09005KT 10SM CLR 19/M01 A3020 RMK AO2 T01881012
KVYS 191635Z AUTO 09007KT 10SM CLR 18/M01 A3019 RMK AO2 T01821006
KVYS 191615Z AUTO 08008KT 10SM CLR 18/M01 A3019 RMK AO2 T01761007
KVYS 191555Z AUTO 09006KT 10SM CLR 17/00 A3019 RMK AO2 T01700003
KVYS 191535Z AUTO 08009KT 10SM CLR 17/00 A3019 RMK AO2 T01670003
KVYS 191515Z AUTO 06010KT 10SM CLR 16/02 A3019 RMK AO2 T01600022
KVYS 191455Z AUTO 06006KT 10SM CLR 15/05 A3019 RMK AO2 T01490045
KVYS 191435Z AUTO 07005KT 10SM CLR 14/07 A3018 RMK AO2 T01420069
KVYS 191415Z AUTO 02003KT 10SM CLR 13/08 A3018 RMK AO2 T01290078
KVYS 191355Z AUTO 00000KT 10SM CLR 12/08 A3018 RMK AO2 T01200081
KVYS 191335Z AUTO 32003KT 10SM CLR 11/08 A3017 RMK AO2 T01120083
KVYS 191315Z AUTO 00000KT 10SM CLR 10/08 A3016 RMK AO2 T01010080
KVYS 191255Z AUTO 00000KT 10SM CLR 10/08 A3015 RMK AO2 T00950076
KVYS 191235Z AUTO 00000KT 10SM CLR 09/08 A3014 RMK AO2 T00900075
KVYS 191215Z AUTO 30003KT 10SM CLR 09/07 A3013 RMK AO2 T00870071
KVYS 191155Z AUTO 28003KT 10SM CLR 09/07 A3012 RMK AO2 T00900073 10113 20090
KVYS 191135Z AUTO 25003KT 10SM CLR 10/07 A3011 RMK AO2 T00960074
KVYS 191115Z AUTO 27003KT 10SM CLR 10/07 A3012 RMK AO2 T00980073
KVYS 191055Z AUTO 25004KT 10SM CLR 09/07 A3010 RMK AO2 T00940070
KVYS 191035Z AUTO 24005KT 10SM CLR 10/07 A3010 RMK AO2 T00970073
KVYS 191015Z AUTO 26005KT 10SM CLR 10/07 A3010 RMK AO2 T01000073
KVYS 190955Z AUTO 26008KT 10SM CLR 11/08 A3009 RMK AO2 T01080076
KVYS 190935Z AUTO 24007KT 10SM CLR 11/08 A3007 RMK AO2 T01070078
KVYS 190915Z AUTO 23007KT 10SM CLR 11/08 A3007 RMK AO2 T01060078
KVYS 190855Z AUTO 23007KT 10SM CLR 11/08 A3007 RMK AO2 T01070077
KVYS 190830Z AUTO 23007KT 10SM CLR 11/08 A3007 RMK AO2 T01060076
KVYS 190815Z AUTO 23007KT 10SM CLR 11/08 A3007 RMK AO2 T01110077
KVYS 190755Z AUTO 22005KT 10SM CLR 10/08 A3007 RMK AO2 T01020075
KVYS 190730Z AUTO 21007KT 10SM CLR 10/08 A3006 RMK AO2 T01040075
KVYS 190715Z AUTO 22006KT 10SM CLR 11/08 A3006 RMK AO2 T01100076
KVYS 190655Z AUTO 22008KT 10SM CLR 11/08 A3005 RMK AO2 T01120075
KVYS 190630Z AUTO 21008KT 10SM CLR 11/08 A3005 RMK AO2 T01100075
KVYS 190615Z AUTO 22008KT 10SM CLR 11/07 A3005 RMK AO2 T01100074
KVYS 190555Z AUTO 21009KT 10SM CLR 11/07 A3005 RMK AO2 T01100070 10157 20098 402150066
KVYS 190535Z AUTO 21008KT 10SM CLR 11/07 A3005 RMK AO2 T01050069
KVYS 190515Z AUTO 20007KT 10SM CLR 10/06 A3006 RMK AO2 T01010063
KVYS 190455Z AUTO 19007KT 10SM CLR 10/06 A3006 RMK AO2 T01030064
KVYS 190435Z AUTO 17007KT 10SM CLR 11/06 A3007 RMK AO2 T01090062
KVYS 190415Z AUTO 16005KT 10SM CLR 11/06 A3007 RMK AO2 T01120062
KVYS 190355Z AUTO 17004KT 10SM CLR 12/06 A3008 RMK AO2 T01230062
KVYS 190335Z AUTO 20005KT 10SM CLR 12/06 A3008 RMK AO2 T01230061
KVYS 190315Z AUTO 21005KT 10SM CLR 13/06 A3009 RMK AO2 T01290061
KVYS 190255Z AUTO 21006KT 10SM CLR 13/06 A3008 RMK AO2 T01250061
KVYS 190235Z AUTO 20008KT 10SM CLR 14/06 A3007 RMK AO2 T01350063
KVYS 190210Z AUTO 20009KT 10SM CLR 14/06 A3006 RMK AO2 T01390063
KVYS 190155Z AUTO 21010KT 10SM CLR 15/06 A3005 RMK AO2 T01460063
KVYS 190135Z AUTO 20011KT 10SM CLR 15/06 A3004 RMK AO2 T01500062
KVYS 190115Z AUTO 19011KT 10SM CLR 15/06 A3004 RMK AO2 T01510063
KVYS 190055Z AUTO 18012KT 10SM CLR 16/06 A3004 RMK AO2 T01570063
KVYS 190035Z AUTO 18010KT 10SM CLR 16/07 A3004 RMK AO2 T01560065
KVYS 190015Z AUTO 17009KT 10SM CLR 15/06 A3005 RMK AO2 T01540062
KVYS 182355Z AUTO 18007KT 10SM CLR 15/06 A3005 RMK AO2 T01510062 10215 20151
KVYS 182335Z AUTO 19007KT 10SM CLR 16/06 A3005 RMK AO2 T01570058
KVYS 182315Z AUTO 19007KT 10SM CLR 17/06 A3004 RMK AO2 T01650060
KVYS 182255Z AUTO 21007KT 10SM CLR 18/06 A3004 RMK AO2 T01800062
KVYS 182235Z AUTO 21009KT 10SM CLR 19/06 A3003 RMK AO2 T01920059
KVYS 182215Z AUTO 20012G18KT 10SM CLR 20/05 A3003 RMK AO2 T02030049
KVYS 182155Z AUTO 19016KT 10SM CLR 21/05 A3003 RMK AO2 T02070048
KVYS 182135Z AUTO 20018G23KT 10SM CLR 21/04 A3003 RMK AO2 T02100043
KVYS 182115Z AUTO 21014KT 10SM CLR 21/05 A3003 RMK AO2 T02140047
KVYS 182055Z AUTO 19012G21KT 10SM CLR 21/05 A3003 RMK AO2 T02140046
KVYS 182035Z AUTO 20016KT 10SM CLR 21/04 A3004 RMK AO2 T02140043
KVYS 182015Z AUTO 20018G22KT 10SM CLR 21/05 A3005 RMK AO2 T02140046
KVYS 181955Z AUTO 19015KT 10SM CLR 22/05 A3005 RMK AO2 T02150053
KVYS 181935Z AUTO 21016G21KT 10SM CLR 21/05 A3006 RMK AO2 T02110051
KVYS 181915Z AUTO 20013G19KT 10SM CLR 21/06 A3007 RMK AO2 T02090060
KVYS 181850Z AUTO 20017KT 10SM CLR 21/06 A3007 RMK AO2 T02050059
KVYS 181835Z AUTO 20015KT 10SM CLR 20/06 A3008 RMK AO2 T02040063
KVYS 181815Z AUTO 19010G13KT 10SM CLR 20/06 A3008 RMK AO2 T02010064
KVYS 181750Z AUTO 19014G17KT 10SM CLR 20/06 A3010 RMK AO2 T01980063 10199 20066
KVYS 181735Z AUTO 20014G17KT 10SM CLR 20/06 A3011 RMK AO2 T01950064
KVYS 181715Z AUTO 21012G16KT 10SM CLR 19/06 A3011 RMK AO2 T01900064
KVYS 181655Z AUTO 20010KT 10SM CLR 18/06 A3012 RMK AO2 T01810061
KVYS 181635Z AUTO 19009KT 10SM CLR 18/07 A3012 RMK AO2 T01750065
KVYS 181615Z AUTO 20009KT 10SM CLR 17/06 A3013 RMK AO2 T01660063
KVYS 181555Z AUTO 19009KT 10SM CLR 16/06 A3014 RMK AO2 T01550060
KVYS 181535Z AUTO 20011KT 10SM CLR 15/06 A3014 RMK AO2 T01480057
KVYS 181515Z AUTO 20011KT 10SM CLR 14/06 A3015 RMK AO2 T01430058
KVYS 181455Z AUTO 19010KT 10SM CLR 14/06 A3015 RMK AO2 T01350059
KVYS 181435Z AUTO 19010KT 10SM CLR 13/06 A3016 RMK AO2 T01250056
KVYS 181415Z AUTO 20009KT 10SM CLR 12/06 A3015 RMK AO2 T01160056
KVYS 181355Z AUTO 19008KT 10SM CLR 10/05 A3016 RMK AO2 T01030052
KVYS 181330Z AUTO 18007KT 10SM CLR 09/05 A3015 RMK AO2 T00920051
KVYS 181315Z AUTO 18007KT 10SM CLR 09/05 A3015 RMK AO2 T00860049
KVYS 181255Z AUTO 18007KT 10SM CLR 08/05 A3015 RMK AO2 T00780046
KVYS 181235Z AUTO 18008KT 10SM CLR 07/04 A3015 RMK AO2 T00720043
KVYS 181215Z AUTO 18007KT 10SM CLR 07/04 A3015 RMK AO2 T00700041
KVYS 181155Z AUTO 18006KT 10SM CLR 07/04 A3015 RMK AO2 T00670040 10087 20066
KVYS 181135Z AUTO 19007KT 10SM CLR 07/04 A3015 RMK AO2 T00680040
KVYS 181115Z AUTO 18007KT 10SM CLR 07/04 A3015 RMK AO2 T00720041
KVYS 181055Z AUTO 18007KT 10SM CLR 07/04 A3015 RMK AO2 T00670039
KVYS 181035Z AUTO 19007KT 10SM CLR 07/04 A3015 RMK AO2 T00700038
KVYS 181015Z AUTO 19005KT 10SM CLR 08/04 A3015 RMK AO2 T00750040
KVYS 180955Z AUTO 19005KT 10SM CLR 08/04 A3015 RMK AO2 T00750040
KVYS 180935Z AUTO 19006KT 10SM CLR 07/04 A3015 RMK AO2 T00720040
KVYS 180915Z AUTO 18006KT 10SM CLR 07/04 A3014 RMK AO2 T00740040
KVYS 180855Z AUTO 18007KT 10SM CLR 08/04 A3014 RMK AO2 T00770040
KVYS 180835Z AUTO 18006KT 10SM CLR 08/04 A3014 RMK AO2 T00750040
KVYS 180815Z AUTO 19006KT 10SM CLR 08/04 A3014 RMK AO2 T00800038